Time;durP1;ratioP1;P1;durP2;ratioP2;P2;SDS_P1;SDS_P2;PMS_P1;PMS_P2;Temp;Humidity;BMP_temperature;BMP_pressure;BME280_temperature;BME280_humidity;BME280_pressure;Samples;Min_cycle;Max_cycle;Signal;HPM_P1;HPM_P2
2023/02/14 00:04:09;;;;;;;28.70;10.67;;;;;;;;;;10523316;28;20040;-78
2023/02/14 00:09:15;;;;;;;25.90;9.37;;;;;;;;;;10520658;28;20111;-78
2023/02/14 00:19:37;;;;;;;19.30;7.03;;;;;;;;;;10522315;28;20053;-79
2023/02/14 00:24:41;;;;;;;27.43;8.97;;;;;;;;;;10522932;28;20040;-78
2023/02/14 00:29:44;;;;;;;;;;;;;;;;;;10530207;28;20105;-77
2023/02/14 00:34:46;;;;;;;10.63;4.70;;;;;;;;;;10515672;28;20298;-78
2023/02/14 00:39:50;;;;;;;14.00;4.67;;;;;;;;;;10522052;28;20101;-78
2023/02/14 00:44:53;;;;;;;29.17;8.63;;;;;;;;;;10521977;28;20051;-77
2023/02/14 00:50:01;;;;;;;35.00;10.10;;;;;;;;;;10522401;28;20417;-78
2023/02/14 00:55:06;;;;;;;25.70;8.30;;;;;;;;;;10521822;28;20032;-79
2023/02/14 01:00:08;;;;;;;;;;;;;;;;;;10522083;28;20562;-78
2023/02/14 01:05:11;;;;;;;18.93;5.17;;;;;;;;;;10518896;28;19924;-78
2023/02/14 01:10:15;;;;;;;24.17;9.53;;;;;;;;;;10521386;28;20501;-78
2023/02/14 01:15:17;;;;;;;22.15;7.75;;;;;;;;;;10529184;28;20051;-78
2023/02/14 01:20:20;;;;;;;23.03;7.60;;;;;;;;;;10522216;28;20047;-79
2023/02/14 01:25:24;;;;;;;22.30;7.53;;;;;;;;;;10522951;28;20051;-78
2023/02/14 01:30:27;;;;;;;;;;;;;;;;;;10526190;28;20224;-78
2023/02/14 01:35:29;;;;;;;17.43;7.30;;;;;;;;;;10526667;28;19928;-78
2023/02/14 01:40:33;;;;;;;8.00;3.23;;;;;;;;;;10529728;28;20044;-78
2023/02/14 01:45:36;;;;;;;9.50;4.05;;;;;;;;;;10531822;28;20043;-77
2023/02/14 01:50:41;;;;;;;9.83;4.10;;;;;;;;;;10514715;28;20127;-78
2023/02/14 01:55:47;;;;;;;16.07;5.13;;;;;;;;;;10532217;28;20047;-78
2023/02/14 02:00:59;;;;;;;24.50;7.70;;;;;;;;;;10530738;28;20490;-77
2023/02/14 02:06:05;;;;;;;22.00;7.80;;;;;;;;;;10532593;28;20432;-78
2023/02/14 02:11:09;;;;;;;11.43;4.50;;;;;;;;;;10527980;28;20063;-79
2023/02/14 02:16:21;;;;;;;22.45;6.63;;;;;;;;;;10544215;28;20088;-79
2023/02/14 02:21:44;;;;;;;15.60;6.00;;;;;;;;;;10525001;28;20126;-78
2023/02/14 02:26:57;;;;;;;13.57;5.57;;;;;;;;;;10537478;28;20039;-78
2023/02/14 02:32:18;;;;;;;9.63;4.20;;;;;;;;;;10532525;28;20097;-78
2023/02/14 02:37:29;;;;;;;22.60;7.67;;;;;;;;;;10532015;28;20052;-79
2023/02/14 02:42:37;;;;;;;20.03;7.37;;;;;;;;;;10527851;28;20046;-79
2023/02/14 02:47:42;;;;;;;24.40;8.17;;;;;;;;;;10530613;28;20032;-79
2023/02/14 02:53:05;;;;;;;16.87;6.63;;;;;;;;;;10529919;28;20036;-77
2023/02/14 02:58:08;;;;;;;9.93;3.23;;;;;;;;;;10537321;28;20046;-77
2023/02/14 03:08:33;;;;;;;21.33;6.93;;;;;;;;;;10527507;28;20044;-78
2023/02/14 03:13:47;;;;;;;19.20;7.13;;;;;;;;;;10533361;28;20036;-78
2023/02/14 03:19:02;;;;;;;;;;;;;;;;;;10522965;28;20131;-78
2023/02/14 03:24:09;;;;;;;18.52;5.80;;;;;;;;;;10514531;28;19920;-79
2023/02/14 03:29:15;;;;;;;18.60;6.33;;;;;;;;;;10529971;28;20044;-78
2023/02/14 03:34:21;;;;;;;23.67;7.97;;;;;;;;;;10518503;28;20036;-80
2023/02/14 03:39:27;;;;;;;14.77;5.63;;;;;;;;;;10529323;28;20067;-80
2023/02/14 03:44:32;;;;;;;14.30;5.80;;;;;;;;;;10531101;28;20055;-78
2023/02/14 03:49:37;;;;;;;21.43;6.40;;;;;;;;;;10527675;28;20062;-79
2023/02/14 03:54:41;;;;;;;17.20;6.17;;;;;;;;;;10528302;28;20040;-79
2023/02/14 03:59:44;;;;;;;13.83;5.50;;;;;;;;;;10512096;28;20044;-79
2023/02/14 04:04:48;;;;;;;16.90;7.20;;;;;;;;;;10523968;28;20116;-79
2023/02/14 04:09:51;;;;;;;;;;;;;;;;;;10537527;28;20364;-79
2023/02/14 04:14:55;;;;;;;10.50;3.40;;;;;;;;;;10529289;28;19946;-78
2023/02/14 04:19:57;;;;;;;8.88;4.45;;;;;;;;;;10526143;28;20059;-79
2023/02/14 04:25:00;;;;;;;15.40;5.93;;;;;;;;;;10527404;28;20051;-80
2023/02/14 04:30:04;;;;;;;18.13;6.50;;;;;;;;;;10527451;28;20051;-78
2023/02/14 04:35:07;;;;;;;11.30;4.10;;;;;;;;;;10522006;28;20036;-79
2023/02/14 04:40:11;;;;;;;15.80;5.10;;;;;;;;;;10523360;28;20176;-79
2023/02/14 04:45:15;;;;;;;6.57;2.83;;;;;;;;;;10523109;28;20048;-79
2023/02/14 04:50:17;;;;;;;15.15;5.88;;;;;;;;;;10521626;28;20162;-78
2023/02/14 04:55:19;;;;;;;11.73;4.73;;;;;;;;;;10503665;28;20070;-77
2023/02/14 05:00:24;;;;;;;22.83;7.10;;;;;;;;;;10523906;28;21005;-77
2023/02/14 05:05:26;;;;;;;17.40;6.17;;;;;;;;;;10525042;28;20048;-77
2023/02/14 05:10:29;;;;;;;18.97;6.83;;;;;;;;;;10535790;28;20040;-78
2023/02/14 05:15:33;;;;;;;23.87;8.20;;;;;;;;;;10515429;28;20449;-78
2023/02/14 05:20:39;;;;;;;21.70;8.00;;;;;;;;;;10521736;28;20040;-78
2023/02/14 05:25:42;;;;;;;26.93;10.23;;;;;;;;;;10531347;28;20028;-77
2023/02/14 05:30:46;;;;;;;30.70;9.83;;;;;;;;;;10505231;28;20068;-76
2023/02/14 05:35:49;;;;;;;24.30;9.10;;;;;;;;;;10529868;28;20052;-77
2023/02/14 05:40:51;;;;;;;18.47;6.80;;;;;;;;;;10545424;28;20051;-77
2023/02/14 05:45:55;;;;;;;21.33;7.03;;;;;;;;;;10526581;28;20057;-77
2023/02/14 05:51:02;;;;;;;16.45;5.75;;;;;;;;;;10535320;28;20139;-77
2023/02/14 05:56:05;;;;;;;24.50;8.10;;;;;;;;;;10517605;28;20612;-79
2023/02/14 06:01:09;;;;;;;25.57;8.70;;;;;;;;;;10531814;28;20421;-77
2023/02/14 06:06:12;;;;;;;23.80;8.63;;;;;;;;;;10537465;28;20040;-77
2023/02/14 06:11:14;;;;;;;22.33;8.83;;;;;;;;;;10530108;28;20071;-78
2023/02/14 06:16:18;;;;;;;25.30;8.73;;;;;;;;;;10531152;28;20373;-78
2023/02/14 06:21:21;;;;;;;;;;;;;;;;;;10533614;28;20047;-78
2023/02/14 06:26:26;;;;;;;24.93;9.17;;;;;;;;;;10529135;28;20001;-78
2023/02/14 06:31:30;;;;;;;25.60;9.60;;;;;;;;;;10539225;28;20048;-79
2023/02/14 06:36:33;;;;;;;;;;;;;;;;;;10535400;28;21380;-77
2023/02/14 06:41:36;;;;;;;23.90;8.60;;;;;;;;;;10535784;28;20324;-79
2023/02/14 06:46:40;;;;;;;22.83;7.80;;;;;;;;;;10530361;28;20476;-78
2023/02/14 06:51:43;;;;;;;;;;;;;;;;;;10544488;28;20044;-78
2023/02/14 06:56:46;;;;;;;19.03;5.73;;;;;;;;;;10528393;28;19927;-77
2023/02/14 07:01:50;;;;;;;16.73;5.80;;;;;;;;;;10526561;28;20336;-79
2023/02/14 07:06:53;;;;;;;18.50;6.13;;;;;;;;;;10527717;28;20442;-78
2023/02/14 07:11:55;;;;;;;20.07;6.03;;;;;;;;;;10533090;28;20374;-79
2023/02/14 07:16:59;;;;;;;23.63;7.80;;;;;;;;;;10521230;28;20036;-77
2023/02/14 07:22:02;;;;;;;16.45;6.47;;;;;;;;;;10525106;28;20044;-78
2023/02/14 07:27:04;;;;;;;18.57;6.27;;;;;;;;;;10523730;28;20035;-77
2023/02/14 07:32:08;;;;;;;13.47;4.73;;;;;;;;;;10524181;28;20043;-77
2023/02/14 07:37:11;;;;;;;;;;;;;;;;;;10520561;28;20548;-79
2023/02/14 07:42:14;;;;;;;18.00;6.53;;;;;;;;;;10524598;28;20357;-77
2023/02/14 07:47:18;;;;;;;15.97;5.23;;;;;;;;;;10503824;28;20071;-77
2023/02/14 07:52:20;;;;;;;11.85;4.32;;;;;;;;;;10524231;28;20279;-78
2023/02/14 07:57:23;;;;;;;7.87;3.43;;;;;;;;;;10529207;28;20230;-77
2023/02/14 08:02:27;;;;;;;20.53;7.03;;;;;;;;;;10527660;28;20108;-76
2023/02/14 08:07:29;;;;;;;20.95;7.22;;;;;;;;;;10512777;28;20078;-76
2023/02/14 08:18:02;;;;;;;25.27;6.40;;;;;;;;;;10484057;28;20048;-77
2023/02/14 08:23:04;;;;;;;22.50;8.35;;;;;;;;;;10522663;28;20036;-77
2023/02/14 08:28:07;;;;;;;15.43;5.63;;;;;;;;;;10518427;28;20696;-76
2023/02/14 08:33:12;;;;;;;21.60;7.30;;;;;;;;;;10507659;28;20044;-77
2023/02/14 08:38:14;;;;;;;21.77;7.25;;;;;;;;;;10527332;28;20063;-77
2023/02/14 08:43:19;;;;;;;21.35;7.72;;;;;;;;;;10523041;28;20036;-77
2023/02/14 08:48:25;;;;;;;20.50;7.85;;;;;;;;;;10518773;28;20040;-78
2023/02/14 08:53:28;;;;;;;8.32;4.32;;;;;;;;;;10508471;28;20043;-76
2023/02/14 08:58:30;;;;;;;16.30;7.13;;;;;;;;;;10523117;28;20044;-76
2023/02/14 09:03:35;;;;;;;12.10;5.43;;;;;;;;;;10522323;28;20063;-77
2023/02/14 09:08:40;;;;;;;21.42;7.57;;;;;;;;;;10519732;28;20410;-78
2023/02/14 09:13:43;;;;;;;8.68;4.10;;;;;;;;;;10516815;28;20046;-79
2023/02/14 09:18:47;;;;;;;24.48;8.15;;;;;;;;;;10521767;28;20036;-78
2023/02/14 09:23:49;;;;;;;;;;;;;;;;;;10520582;28;20826;-78
2023/02/14 09:28:52;;;;;;;23.38;9.43;;;;;;;;;;10517828;28;19924;-78
2023/02/14 09:33:56;;;;;;;22.45;8.98;;;;;;;;;;10518842;28;20051;-79
2023/02/14 09:38:59;;;;;;;21.45;9.82;;;;;;;;;;10522273;28;20052;-79
2023/02/14 09:44:03;;;;;;;22.73;10.43;;;;;;;;;;10521873;28;20035;-80
2023/02/14 09:49:08;;;;;;;27.55;11.57;;;;;;;;;;10515944;28;20915;-79
2023/02/14 09:54:12;;;;;;;22.70;12.57;;;;;;;;;;10519972;28;20486;-79
2023/02/14 09:59:17;;;;;;;20.85;11.55;;;;;;;;;;10520499;28;20055;-79
2023/02/14 10:04:28;;;;;;;25.40;13.57;;;;;;;;;;10514807;28;20067;-79
2023/02/14 10:09:38;;;;;;;24.10;15.07;;;;;;;;;;10493806;28;20123;-79
2023/02/14 10:14:41;;;;;;;22.88;15.30;;;;;;;;;;10525969;28;20048;-79
2023/02/14 10:19:48;;;;;;;26.00;16.13;;;;;;;;;;10528880;28;20035;-80
2023/02/14 10:24:52;;;;;;;22.92;16.13;;;;;;;;;;10523693;28;20086;-80
2023/02/14 10:29:55;;;;;;;21.40;15.50;;;;;;;;;;10530076;28;20040;-80
2023/02/14 10:35:00;;;;;;;29.90;15.52;;;;;;;;;;10523824;28;20032;-81
2023/02/14 10:40:20;;;;;;;26.30;15.73;;;;;;;;;;10527833;28;20031;-80
2023/02/14 10:45:26;;;;;;;24.70;15.07;;;;;;;;;;10539364;27;20140;-79
2023/02/14 10:50:31;;;;;;;20.90;14.77;;;;;;;;;;10538932;28;20047;-79
2023/02/14 10:55:38;;;;;;;18.88;12.70;;;;;;;;;;10533061;28;20054;-80
2023/02/14 11:00:46;;;;;;;25.80;14.20;;;;;;;;;;10526753;28;20070;-79
2023/02/14 11:05:50;;;;;;;21.05;14.20;;;;;;;;;;10516898;28;20071;-79
2023/02/14 11:10:53;;;;;;;22.13;14.40;;;;;;;;;;10524966;28;20032;-80
2023/02/14 11:15:58;;;;;;;18.65;12.95;;;;;;;;;;10532902;28;20386;-79
2023/02/14 11:21:04;;;;;;;20.13;14.07;;;;;;;;;;10527498;28;20064;-79
2023/02/14 11:26:10;;;;;;;24.35;14.15;;;;;;;;;;10525752;28;20082;-80
2023/02/14 11:31:13;;;;;;;22.35;14.38;;;;;;;;;;10521084;28;20599;-78
2023/02/14 11:36:20;;;;;;;25.85;13.68;;;;;;;;;;10528206;28;20470;-79
2023/02/14 11:41:23;;;;;;;21.40;12.93;;;;;;;;;;10526187;28;20036;-79
2023/02/14 11:46:29;;;;;;;19.48;12.60;;;;;;;;;;10523640;28;20063;-79
2023/02/14 11:51:36;;;;;;;19.75;12.77;;;;;;;;;;10527767;28;20200;-85
2023/02/14 11:56:46;;;;;;;17.08;11.60;;;;;;;;;;10530920;28;20519;-80
2023/02/14 12:01:51;;;;;;;18.67;12.43;;;;;;;;;;10523758;28;20561;-80
2023/02/14 12:06:56;;;;;;;19.23;12.50;;;;;;;;;;10521846;28;20048;-80
2023/02/14 12:11:59;;;;;;;19.30;12.27;;;;;;;;;;10525425;28;20500;-80
2023/02/14 12:17:04;;;;;;;23.85;12.98;;;;;;;;;;10520452;28;20028;-77
2023/02/14 12:22:10;;;;;;;24.35;12.73;;;;;;;;;;10521878;28;20119;-79
2023/02/14 12:27:18;;;;;;;20.73;13.07;;;;;;;;;;10520860;28;20037;-79
2023/02/14 12:32:23;;;;;;;18.00;11.63;;;;;;;;;;10521840;28;20412;-80
2023/02/14 12:37:31;;;;;;;20.08;12.00;;;;;;;;;;10516139;28;20089;-78
2023/02/14 12:42:42;;;;;;;18.20;12.00;;;;;;;;;;10508384;28;20044;-78
2023/02/14 12:47:52;;;;;;;21.02;12.07;;;;;;;;;;10519693;28;20047;-78
2023/02/14 12:53:15;;;;;;;19.42;11.38;;;;;;;;;;10520579;28;20044;-78
2023/02/14 12:58:23;;;;;;;19.60;10.75;;;;;;;;;;10522360;28;20805;-78
2023/02/14 13:03:45;;;;;;;17.70;10.57;;;;;;;;;;10523166;28;20108;-79
2023/02/14 13:09:00;;;;;;;19.17;10.60;;;;;;;;;;10524228;28;20123;-79
2023/02/14 13:14:06;;;;;;;17.05;11.25;;;;;;;;;;10523867;28;20131;-77
2023/02/14 13:19:16;;;;;;;16.65;11.38;;;;;;;;;;10527699;28;20134;-77
2023/02/14 13:24:21;;;;;;;16.27;10.85;;;;;;;;;;10500947;28;20051;-79
2023/02/14 13:29:25;;;;;;;15.85;10.50;;;;;;;;;;10522987;28;20466;-78
2023/02/14 13:34:30;;;;;;;19.13;10.95;;;;;;;;;;10515712;28;20052;-78
2023/02/14 13:39:35;;;;;;;17.95;9.75;;;;;;;;;;10520440;28;20044;-78
2023/02/14 13:44:45;;;;;;;15.25;9.38;;;;;;;;;;10521144;28;20076;-79
2023/02/14 13:49:50;;;;;;;16.80;9.35;;;;;;;;;;10530214;28;20040;-78
2023/02/14 13:55:00;;;;;;;15.45;9.20;;;;;;;;;;10531077;28;20471;-79
2023/02/14 14:00:24;;;;;;;16.67;9.18;;;;;;;;;;10529662;28;20045;-76
2023/02/14 14:05:46;;;;;;;16.90;8.43;;;;;;;;;;10524871;28;20488;-80
2023/02/14 14:10:51;;;;;;;17.83;9.02;;;;;;;;;;10531463;28;20401;-80
2023/02/14 14:16:09;;;;;;;19.83;9.00;;;;;;;;;;10527057;28;20042;-78
2023/02/14 14:21:16;;;;;;;15.00;8.32;;;;;;;;;;10526192;28;20139;-79
2023/02/14 14:26:34;;;;;;;20.00;8.88;;;;;;;;;;10524446;28;20524;-79
2023/02/14 14:31:37;;;;;;;16.95;9.27;;;;;;;;;;10536021;27;20412;-79
2023/02/14 14:36:40;;;;;;;18.88;9.02;;;;;;;;;;10523307;28;20089;-78
2023/02/14 14:41:44;;;;;;;19.92;8.80;;;;;;;;;;10531213;28;20500;-79
2023/02/14 14:46:47;;;;;;;19.15;9.07;;;;;;;;;;10527374;28;20481;-79
2023/02/14 14:51:49;;;;;;;20.50;9.13;;;;;;;;;;10527324;28;20596;-79
2023/02/14 14:56:58;;;;;;;19.83;8.47;;;;;;;;;;10532900;28;20048;-80
2023/02/14 15:02:01;;;;;;;20.52;10.30;;;;;;;;;;10525507;28;20037;-79
2023/02/14 15:07:17;;;;;;;25.85;10.60;;;;;;;;;;10526810;28;20032;-79
2023/02/14 15:17:43;;;;;;;23.25;9.88;;;;;;;;;;10528419;28;20086;-79
2023/02/14 15:22:47;;;;;;;25.93;11.13;;;;;;;;;;10512480;28;20063;-78
2023/02/14 15:27:52;;;;;;;24.25;10.20;;;;;;;;;;10524241;28;20123;-78
2023/02/14 15:32:54;;;;;;;27.83;10.45;;;;;;;;;;10506512;28;20064;-79
2023/02/14 15:37:58;;;;;;;21.33;9.10;;;;;;;;;;10527686;28;22098;-78
2023/02/14 15:43:14;;;;;;;20.08;8.48;;;;;;;;;;10523496;28;20040;-78
2023/02/14 15:48:17;;;;;;;;;;;;;;;;;;10524301;28;20050;-79
2023/02/14 15:53:27;;;;;;;23.67;8.85;;;;;;;;;;10524978;28;19955;-79
2023/02/14 15:58:32;;;;;;;18.30;7.63;;;;;;;;;;10515899;28;20060;-79
2023/02/14 16:03:37;;;;;;;18.73;7.07;;;;;;;;;;10524117;28;20809;-79
2023/02/14 16:08:42;;;;;;;21.52;7.50;;;;;;;;;;10523134;28;20036;-79
2023/02/14 16:13:46;;;;;;;20.50;7.07;;;;;;;;;;10531556;28;20048;-78
2023/02/14 16:18:50;;;;;;;;;;;;;;;;;;10523198;28;20031;-78
2023/02/14 16:24:13;;;;;;;22.90;7.10;;;;;;;;;;10521894;28;20292;-80
2023/02/14 16:29:19;;;;;;;21.50;7.07;;;;;;;;;;10529704;28;20503;-80
2023/02/14 16:34:26;;;;;;;24.63;8.98;;;;;;;;;;10524968;28;20044;-79
2023/02/14 16:39:28;;;;;;;25.67;8.23;;;;;;;;;;10521561;28;20044;-79
2023/02/14 16:44:32;;;;;;;30.85;10.25;;;;;;;;;;10526171;28;20043;-79
2023/02/14 16:49:38;;;;;;;32.00;9.15;;;;;;;;;;10516923;28;20040;-79
2023/02/14 16:54:41;;;;;;;27.20;8.77;;;;;;;;;;10521519;28;20040;-79
2023/02/14 16:59:45;;;;;;;24.33;8.43;;;;;;;;;;10514550;28;20086;-79
2023/02/14 17:04:48;;;;;;;24.85;8.05;;;;;;;;;;10516936;28;20043;-80
2023/02/14 17:09:55;;;;;;;29.17;9.10;;;;;;;;;;10521558;28;20037;-80
2023/02/14 17:15:01;;;;;;;27.20;8.32;;;;;;;;;;10516646;28;20105;-78
2023/02/14 17:20:05;;;;;;;34.72;10.73;;;;;;;;;;10518688;28;20568;-80
2023/02/14 17:25:08;;;;;;;24.45;8.38;;;;;;;;;;10533090;28;20071;-79
2023/02/14 17:30:14;;;;;;;20.30;7.47;;;;;;;;;;10529120;28;20481;-78
2023/02/14 17:35:16;;;;;;;27.33;7.57;;;;;;;;;;10529197;28;20052;-80
2023/02/14 17:40:20;;;;;;;31.08;9.25;;;;;;;;;;10530583;28;20036;-81
2023/02/14 17:45:24;;;;;;;31.42;8.82;;;;;;;;;;10524650;28;20261;-79
2023/02/14 17:50:27;;;;;;;28.20;9.48;;;;;;;;;;10529525;28;20032;-79
2023/02/14 17:55:29;;;;;;;34.45;11.55;;;;;;;;;;10529601;28;20052;-79
2023/02/14 18:00:33;;;;;;;29.15;10.70;;;;;;;;;;10537596;28;20036;-79
2023/02/14 18:05:36;;;;;;;26.08;8.30;;;;;;;;;;10530616;28;20048;-82
2023/02/14 18:10:39;;;;;;;17.00;7.63;;;;;;;;;;10531300;28;20112;-80
2023/02/14 18:15:44;;;;;;;20.23;7.07;;;;;;;;;;10528038;28;20040;-80
2023/02/14 18:20:52;;;;;;;20.52;6.68;;;;;;;;;;10532901;28;20119;-79
2023/02/14 18:25:56;;;;;;;27.45;7.75;;;;;;;;;;10530590;28;20115;-81
2023/02/14 18:31:05;;;;;;;27.60;8.82;;;;;;;;;;10528044;28;20028;-79
2023/02/14 18:36:10;;;;;;;20.42;5.88;;;;;;;;;;10525184;28;20051;-79
2023/02/14 18:41:14;;;;;;;21.40;6.75;;;;;;;;;;10528574;28;20532;-79
2023/02/14 18:46:17;;;;;;;;;;;;;;;;;;10523416;28;20490;-80
2023/02/14 18:51:22;;;;;;;20.58;7.68;;;;;;;;;;10511566;28;19981;-78
2023/02/14 18:56:27;;;;;;;12.73;5.35;;;;;;;;;;10531154;28;20040;-80
2023/02/14 19:01:31;;;;;;;23.27;7.22;;;;;;;;;;10529668;28;20040;-81
2023/02/14 19:06:35;;;;;;;21.13;7.03;;;;;;;;;;10522528;28;20051;-80
2023/02/14 19:11:38;;;;;;;21.02;6.70;;;;;;;;;;10537897;28;20069;-80
2023/02/14 19:16:48;;;;;;;20.77;6.97;;;;;;;;;;10530073;28;20055;-79
2023/02/14 19:21:53;;;;;;;13.63;5.63;;;;;;;;;;10528505;28;20032;-80
2023/02/14 19:26:56;;;;;;;10.90;4.70;;;;;;;;;;10531522;28;20050;-80
2023/02/14 19:31:59;;;;;;;20.80;7.17;;;;;;;;;;10534940;28;20028;-80
2023/02/14 19:37:03;;;;;;;23.00;7.78;;;;;;;;;;10550631;28;20046;-81
2023/02/14 19:42:05;;;;;;;17.80;6.93;;;;;;;;;;10571910;28;20040;-80
2023/02/14 19:47:10;;;;;;;17.10;6.20;;;;;;;;;;10568836;28;20055;-81
2023/02/14 19:52:31;;;;;;;22.67;7.17;;;;;;;;;;10559468;28;20062;-81
2023/02/14 19:57:34;;;;;;;;;;;;;;;;;;10544005;28;20055;-80
2023/02/14 20:02:44;;;;;;;17.23;6.50;;;;;;;;;;10533537;28;19920;-81
2023/02/14 20:07:50;;;;;;;15.47;5.40;;;;;;;;;;10525710;28;20044;-81
2023/02/14 20:12:53;;;;;;;12.57;4.47;;;;;;;;;;10531865;28;20032;-80
2023/02/14 20:17:56;;;;;;;12.43;4.93;;;;;;;;;;10530898;28;20125;-80
2023/02/14 20:23:00;;;;;;;21.70;6.07;;;;;;;;;;10533907;28;20029;-81
2023/02/14 20:28:03;;;;;;;;;;;;;;;;;;10529651;28;20044;-81
2023/02/14 20:33:06;;;;;;;14.30;5.53;;;;;;;;;;10532804;28;19927;-80
2023/02/14 20:38:11;;;;;;;16.50;6.00;;;;;;;;;;10532626;28;20048;-79
2023/02/14 20:43:14;;;;;;;8.93;3.70;;;;;;;;;;10524000;28;20659;-79
2023/02/14 20:48:17;;;;;;;11.97;5.40;;;;;;;;;;10530800;28;20048;-81
2023/02/14 20:53:22;;;;;;;11.57;5.35;;;;;;;;;;10535199;28;20052;-80
2023/02/14 20:58:25;;;;;;;15.70;5.90;;;;;;;;;;10537040;28;20051;-80
2023/02/14 21:03:31;;;;;;;5.83;3.47;;;;;;;;;;10515985;28;20070;-81
2023/02/14 21:08:36;;;;;;;9.67;4.47;;;;;;;;;;10526183;28;20084;-80
2023/02/14 21:13:39;;;;;;;7.57;4.47;;;;;;;;;;10527563;28;20434;-80
2023/02/14 21:18:46;;;;;;;18.87;7.20;;;;;;;;;;10530131;28;20036;-81
2023/02/14 21:23:51;;;;;;;12.33;5.67;;;;;;;;;;10534879;28;20446;-80
2023/02/14 21:28:53;;;;;;;16.43;4.80;;;;;;;;;;10530361;28;20474;-80
2023/02/14 21:33:57;;;;;;;11.83;4.90;;;;;;;;;;10531205;28;20055;-80
2023/02/14 21:39:02;;;;;;;21.23;5.93;;;;;;;;;;10526751;28;20104;-80
2023/02/14 21:44:05;;;;;;;14.87;5.80;;;;;;;;;;10524929;28;20067;-80
2023/02/14 21:54:29;;;;;;;17.67;5.87;;;;;;;;;;10528306;28;20113;-80
2023/02/14 21:59:32;;;;;;;11.85;4.68;;;;;;;;;;10538143;28;20127;-80
2023/02/14 22:04:35;;;;;;;9.80;4.53;;;;;;;;;;10538281;28;20516;-79
2023/02/14 22:09:39;;;;;;;19.43;6.23;;;;;;;;;;10532513;28;20656;-80
2023/02/14 22:14:41;;;;;;;12.73;4.32;;;;;;;;;;10528332;28;20043;-80
2023/02/14 22:19:44;;;;;;;17.27;6.67;;;;;;;;;;10533956;28;20060;-80
2023/02/14 22:24:49;;;;;;;14.33;4.60;;;;;;;;;;10533360;28;20097;-80
2023/02/14 22:29:51;;;;;;;;;;;;;;;;;;10533736;28;20059;-79
2023/02/14 22:34:54;;;;;;;12.37;5.30;;;;;;;;;;10531765;28;19920;-79
2023/02/14 22:39:58;;;;;;;6.37;3.20;;;;;;;;;;10525558;28;20036;-82
2023/02/14 22:45:01;;;;;;;8.85;3.95;;;;;;;;;;10531681;28;20115;-80
2023/02/14 22:50:04;;;;;;;14.33;5.37;;;;;;;;;;10525970;28;20079;-79
2023/02/14 22:55:08;;;;;;;14.07;5.90;;;;;;;;;;10527505;28;20149;-79
2023/02/14 23:00:12;;;;;;;16.60;5.70;;;;;;;;;;10531671;28;20401;-79
2023/02/14 23:05:15;;;;;;;16.67;6.37;;;;;;;;;;10527524;28;20098;-79
2023/02/14 23:10:20;;;;;;;21.43;7.03;;;;;;;;;;10530661;28;20638;-79
2023/02/14 23:26:04;;;;;;;12.50;4.87;;;;;;;;;;10522893;28;20405;-80
2023/02/14 23:31:07;;;;;;;11.43;4.40;;;;;;;;;;10522426;28;20036;-79
2023/02/14 23:36:10;;;;;;;11.57;4.93;;;;;;;;;;10533600;28;20050;-81
2023/02/14 23:46:35;;;;;;;12.60;5.20;;;;;;;;;;10520829;28;20048;-78
2023/02/14 23:51:37;;;;;;;10.60;4.60;;;;;;;;;;10521336;28;20028;-79
2023/02/14 23:56:42;;;;;;;14.40;5.33;;;;;;;;;;10522419;28;20508;-79
